sensor_id;sensor_type;location;lat;lon;timestamp;P1;durP1;ratioP1;P2;durP2;ratioP2
44774;SDS011;31340;51.402;0.016;2023-06-10T00:00:03;27.75;;;11.30;;
44774;SDS011;31340;51.402;0.016;2023-06-10T00:02:39;27.52;;;11.70;;
44774;SDS011;31340;51.402;0.016;2023-06-10T00:05:08;28.00;;;11.48;;
44774;SDS011;31340;51.402;0.016;2023-06-10T00:07:37;25.63;;;10.90;;
44774;SDS011;31340;51.402;0.016;2023-06-10T00:10:06;28.83;;;10.70;;
44774;SDS011;31340;51.402;0.016;2023-06-10T00:12:34;23.40;;;10.50;;
44774;SDS011;31340;51.402;0.016;2023-06-10T00:15:06;24.20;;;10.65;;
44774;SDS011;31340;51.402;0.016;2023-06-10T00:17:35;27.98;;;10.90;;
44774;SDS011;31340;51.402;0.016;2023-06-10T00:20:07;29.50;;;10.45;;
44774;SDS011;31340;51.402;0.016;2023-06-10T00:22:38;31.25;;;12.32;;
44774;SDS011;31340;51.402;0.016;2023-06-10T00:25:06;31.23;;;11.27;;
44774;SDS011;31340;51.402;0.016;2023-06-10T00:27:35;29.27;;;10.68;;
44774;SDS011;31340;51.402;0.016;2023-06-10T00:30:03;31.35;;;11.63;;
44774;SDS011;31340;51.402;0.016;2023-06-10T00:32:34;28.95;;;11.18;;
44774;SDS011;31340;51.402;0.016;2023-06-10T00:35:03;24.98;;;11.68;;
44774;SDS011;31340;51.402;0.016;2023-06-10T00:37:32;35.78;;;12.10;;
44774;SDS011;31340;51.402;0.016;2023-06-10T00:40:03;31.15;;;12.13;;
44774;SDS011;31340;51.402;0.016;2023-06-10T00:42:32;25.15;;;9.98;;
44774;SDS011;31340;51.402;0.016;2023-06-10T00:45:00;28.40;;;11.45;;
44774;SDS011;31340;51.402;0.016;2023-06-10T00:47:28;23.42;;;11.10;;
44774;SDS011;31340;51.402;0.016;2023-06-10T00:49:57;24.27;;;10.90;;
44774;SDS011;31340;51.402;0.016;2023-06-10T00:52:26;26.25;;;11.07;;
44774;SDS011;31340;51.402;0.016;2023-06-10T00:54:56;26.88;;;11.43;;
44774;SDS011;31340;51.402;0.016;2023-06-10T00:57:24;28.48;;;12.02;;
44774;SDS011;31340;51.402;0.016;2023-06-10T00:59:52;30.85;;;12.02;;
44774;SDS011;31340;51.402;0.016;2023-06-10T01:02:21;27.58;;;12.57;;
44774;SDS011;31340;51.402;0.016;2023-06-10T01:04:50;43.58;;;14.90;;
44774;SDS011;31340;51.402;0.016;2023-06-10T01:07:26;27.20;;;12.38;;
44774;SDS011;31340;51.402;0.016;2023-06-10T01:15:17;33.28;;;12.55;;
44774;SDS011;31340;51.402;0.016;2023-06-10T01:17:58;32.20;;;13.00;;
44774;SDS011;31340;51.402;0.016;2023-06-10T01:20:31;39.42;;;12.05;;
44774;SDS011;31340;51.402;0.016;2023-06-10T01:23:00;27.95;;;11.75;;
44774;SDS011;31340;51.402;0.016;2023-06-10T01:25:30;27.17;;;13.35;;
44774;SDS011;31340;51.402;0.016;2023-06-10T01:33:49;25.88;;;12.40;;
44774;SDS011;31340;51.402;0.016;2023-06-10T01:36:19;29.25;;;12.80;;
44774;SDS011;31340;51.402;0.016;2023-06-10T01:38:49;28.17;;;12.27;;
44774;SDS011;31340;51.402;0.016;2023-06-10T01:41:20;27.90;;;11.70;;
44774;SDS011;31340;51.402;0.016;2023-06-10T01:43:48;30.23;;;12.18;;
44774;SDS011;31340;51.402;0.016;2023-06-10T01:46:16;30.15;;;11.98;;
44774;SDS011;31340;51.402;0.016;2023-06-10T01:48:48;29.73;;;11.57;;
44774;SDS011;31340;51.402;0.016;2023-06-10T01:51:15;23.52;;;10.77;;
44774;SDS011;31340;51.402;0.016;2023-06-10T01:53:43;26.13;;;11.40;;
44774;SDS011;31340;51.402;0.016;2023-06-10T01:56:11;32.60;;;12.02;;
44774;SDS011;31340;51.402;0.016;2023-06-10T01:58:43;32.00;;;12.15;;
44774;SDS011;31340;51.402;0.016;2023-06-10T02:01:11;30.50;;;12.07;;
44774;SDS011;31340;51.402;0.016;2023-06-10T02:03:39;29.77;;;11.73;;
44774;SDS011;31340;51.402;0.016;2023-06-10T02:06:08;32.15;;;11.73;;
44774;SDS011;31340;51.402;0.016;2023-06-10T02:08:36;26.20;;;11.20;;
44774;SDS011;31340;51.402;0.016;2023-06-10T02:11:04;27.67;;;10.27;;
44774;SDS011;31340;51.402;0.016;2023-06-10T02:13:31;27.65;;;11.43;;
44774;SDS011;31340;51.402;0.016;2023-06-10T02:15:59;25.50;;;10.60;;
44774;SDS011;31340;51.402;0.016;2023-06-10T02:18:29;30.58;;;10.75;;
44774;SDS011;31340;51.402;0.016;2023-06-10T02:20:56;25.05;;;10.93;;
44774;SDS011;31340;51.402;0.016;2023-06-10T02:23:25;28.10;;;10.55;;
44774;SDS011;31340;51.402;0.016;2023-06-10T02:25:53;24.38;;;11.32;;
44774;SDS011;31340;51.402;0.016;2023-06-10T02:28:21;27.00;;;10.63;;
44774;SDS011;31340;51.402;0.016;2023-06-10T02:30:48;27.98;;;10.00;;
44774;SDS011;31340;51.402;0.016;2023-06-10T02:33:16;30.33;;;11.65;;
44774;SDS011;31340;51.402;0.016;2023-06-10T02:35:45;28.40;;;11.63;;
44774;SDS011;31340;51.402;0.016;2023-06-10T02:38:12;30.88;;;11.32;;
44774;SDS011;31340;51.402;0.016;2023-06-10T02:40:40;33.78;;;11.93;;
44774;SDS011;31340;51.402;0.016;2023-06-10T02:43:08;26.15;;;10.57;;
44774;SDS011;31340;51.402;0.016;2023-06-10T02:45:36;30.10;;;11.77;;
44774;SDS011;31340;51.402;0.016;2023-06-10T02:48:06;32.95;;;11.68;;
44774;SDS011;31340;51.402;0.016;2023-06-10T02:50:34;32.72;;;11.07;;
44774;SDS011;31340;51.402;0.016;2023-06-10T02:53:13;24.65;;;10.57;;
44774;SDS011;31340;51.402;0.016;2023-06-10T02:55:44;27.63;;;10.65;;
44774;SDS011;31340;51.402;0.016;2023-06-10T02:58:15;32.25;;;10.65;;
44774;SDS011;31340;51.402;0.016;2023-06-10T03:00:43;28.27;;;10.85;;
44774;SDS011;31340;51.402;0.016;2023-06-10T03:03:13;28.63;;;11.13;;
44774;SDS011;31340;51.402;0.016;2023-06-10T03:05:55;30.05;;;11.43;;
44774;SDS011;31340;51.402;0.016;2023-06-10T03:08:24;25.48;;;10.77;;
44774;SDS011;31340;51.402;0.016;2023-06-10T03:10:52;25.58;;;11.13;;
44774;SDS011;31340;51.402;0.016;2023-06-10T03:13:20;32.42;;;11.07;;
44774;SDS011;31340;51.402;0.016;2023-06-10T03:15:48;25.75;;;11.10;;
44774;SDS011;31340;51.402;0.016;2023-06-10T03:18:20;26.80;;;10.65;;
44774;SDS011;31340;51.402;0.016;2023-06-10T03:20:50;27.10;;;11.05;;
44774;SDS011;31340;51.402;0.016;2023-06-10T03:23:20;27.45;;;11.10;;
44774;SDS011;31340;51.402;0.016;2023-06-10T03:25:48;25.95;;;10.57;;
44774;SDS011;31340;51.402;0.016;2023-06-10T03:28:18;30.00;;;10.67;;
44774;SDS011;31340;51.402;0.016;2023-06-10T03:30:45;28.52;;;10.68;;
44774;SDS011;31340;51.402;0.016;2023-06-10T03:33:14;25.42;;;11.25;;
44774;SDS011;31340;51.402;0.016;2023-06-10T03:35:44;28.95;;;10.68;;
44774;SDS011;31340;51.402;0.016;2023-06-10T03:38:14;25.02;;;10.32;;
44774;SDS011;31340;51.402;0.016;2023-06-10T03:40:42;34.95;;;12.25;;
44774;SDS011;31340;51.402;0.016;2023-06-10T03:43:10;34.92;;;11.82;;
44774;SDS011;31340;51.402;0.016;2023-06-10T03:45:37;36.03;;;13.27;;
44774;SDS011;31340;51.402;0.016;2023-06-10T03:48:05;29.67;;;11.73;;
44774;SDS011;31340;51.402;0.016;2023-06-10T03:50:42;31.27;;;11.95;;
44774;SDS011;31340;51.402;0.016;2023-06-10T03:53:10;27.27;;;11.13;;
44774;SDS011;31340;51.402;0.016;2023-06-10T03:55:41;32.53;;;12.32;;
44774;SDS011;31340;51.402;0.016;2023-06-10T03:58:08;32.13;;;12.25;;
44774;SDS011;31340;51.402;0.016;2023-06-10T04:00:36;26.05;;;10.68;;
44774;SDS011;31340;51.402;0.016;2023-06-10T04:03:08;31.30;;;12.05;;
44774;SDS011;31340;51.402;0.016;2023-06-10T04:05:45;29.52;;;10.60;;
44774;SDS011;31340;51.402;0.016;2023-06-10T04:08:13;29.33;;;11.80;;
44774;SDS011;31340;51.402;0.016;2023-06-10T04:10:40;27.40;;;11.10;;
44774;SDS011;31340;51.402;0.016;2023-06-10T04:13:08;28.13;;;10.45;;
44774;SDS011;31340;51.402;0.016;2023-06-10T04:15:43;31.25;;;12.32;;
44774;SDS011;31340;51.402;0.016;2023-06-10T04:18:15;30.23;;;11.88;;
44774;SDS011;31340;51.402;0.016;2023-06-10T04:20:45;29.15;;;11.93;;
44774;SDS011;31340;51.402;0.016;2023-06-10T04:23:13;33.13;;;11.75;;
44774;SDS011;31340;51.402;0.016;2023-06-10T04:25:43;30.38;;;11.40;;
44774;SDS011;31340;51.402;0.016;2023-06-10T04:28:11;25.38;;;11.27;;
44774;SDS011;31340;51.402;0.016;2023-06-10T04:30:40;29.63;;;11.80;;
44774;SDS011;31340;51.402;0.016;2023-06-10T04:33:08;29.23;;;12.02;;
44774;SDS011;31340;51.402;0.016;2023-06-10T04:35:38;22.85;;;11.23;;
44774;SDS011;31340;51.402;0.016;2023-06-10T04:38:07;39.10;;;13.77;;
44774;SDS011;31340;51.402;0.016;2023-06-10T04:40:35;29.45;;;12.38;;
44774;SDS011;31340;51.402;0.016;2023-06-10T04:43:03;24.15;;;11.95;;
44774;SDS011;31340;51.402;0.016;2023-06-10T04:45:32;28.15;;;12.85;;
44774;SDS011;31340;51.402;0.016;2023-06-10T04:48:00;30.27;;;12.15;;
44774;SDS011;31340;51.402;0.016;2023-06-10T04:50:27;29.13;;;12.75;;
44774;SDS011;31340;51.402;0.016;2023-06-10T04:52:55;26.95;;;11.25;;
44774;SDS011;31340;51.402;0.016;2023-06-10T04:55:24;30.17;;;11.63;;
44774;SDS011;31340;51.402;0.016;2023-06-10T04:57:52;30.52;;;12.18;;
44774;SDS011;31340;51.402;0.016;2023-06-10T05:00:19;28.42;;;12.68;;
44774;SDS011;31340;51.402;0.016;2023-06-10T05:02:48;29.10;;;12.00;;
44774;SDS011;31340;51.402;0.016;2023-06-10T05:05:17;34.40;;;12.95;;
44774;SDS011;31340;51.402;0.016;2023-06-10T05:07:45;42.03;;;13.52;;
44774;SDS011;31340;51.402;0.016;2023-06-10T05:10:13;29.55;;;11.75;;
44774;SDS011;31340;51.402;0.016;2023-06-10T05:12:40;28.23;;;12.05;;
44774;SDS011;31340;51.402;0.016;2023-06-10T05:15:09;32.65;;;11.45;;
44774;SDS011;31340;51.402;0.016;2023-06-10T05:17:37;31.33;;;12.23;;
44774;SDS011;31340;51.402;0.016;2023-06-10T05:20:05;30.67;;;12.75;;
44774;SDS011;31340;51.402;0.016;2023-06-10T05:22:33;29.65;;;12.32;;
44774;SDS011;31340;51.402;0.016;2023-06-10T05:25:01;30.40;;;11.05;;
44774;SDS011;31340;51.402;0.016;2023-06-10T05:27:29;31.52;;;12.25;;
44774;SDS011;31340;51.402;0.016;2023-06-10T05:29:58;33.40;;;13.18;;
44774;SDS011;31340;51.402;0.016;2023-06-10T05:32:26;33.95;;;12.57;;
44774;SDS011;31340;51.402;0.016;2023-06-10T05:34:53;32.10;;;12.55;;
44774;SDS011;31340;51.402;0.016;2023-06-10T05:37:21;30.73;;;12.60;;
44774;SDS011;31340;51.402;0.016;2023-06-10T05:39:49;33.10;;;12.35;;
44774;SDS011;31340;51.402;0.016;2023-06-10T05:42:17;27.90;;;12.20;;
44774;SDS011;31340;51.402;0.016;2023-06-10T05:44:44;32.13;;;12.73;;
44774;SDS011;31340;51.402;0.016;2023-06-10T05:47:12;28.17;;;11.88;;
44774;SDS011;31340;51.402;0.016;2023-06-10T05:49:39;29.85;;;12.55;;
44774;SDS011;31340;51.402;0.016;2023-06-10T05:52:07;28.15;;;11.48;;
44774;SDS011;31340;51.402;0.016;2023-06-10T05:54:34;30.95;;;12.27;;
44774;SDS011;31340;51.402;0.016;2023-06-10T05:57:02;30.65;;;12.73;;
44774;SDS011;31340;51.402;0.016;2023-06-10T05:59:30;27.73;;;12.05;;
44774;SDS011;31340;51.402;0.016;2023-06-10T06:01:58;21.75;;;11.10;;
44774;SDS011;31340;51.402;0.016;2023-06-10T06:04:26;30.73;;;12.00;;
44774;SDS011;31340;51.402;0.016;2023-06-10T06:06:53;28.90;;;12.95;;
44774;SDS011;31340;51.402;0.016;2023-06-10T06:09:21;36.95;;;12.13;;
44774;SDS011;31340;51.402;0.016;2023-06-10T06:11:48;24.17;;;10.95;;
44774;SDS011;31340;51.402;0.016;2023-06-10T06:14:15;33.03;;;12.35;;
44774;SDS011;31340;51.402;0.016;2023-06-10T06:16:44;26.75;;;12.68;;
44774;SDS011;31340;51.402;0.016;2023-06-10T06:19:11;33.67;;;13.32;;
44774;SDS011;31340;51.402;0.016;2023-06-10T06:21:39;30.45;;;12.85;;
44774;SDS011;31340;51.402;0.016;2023-06-10T06:24:06;33.83;;;13.88;;
44774;SDS011;31340;51.402;0.016;2023-06-10T06:26:34;31.05;;;12.40;;
44774;SDS011;31340;51.402;0.016;2023-06-10T06:29:02;27.05;;;13.15;;
44774;SDS011;31340;51.402;0.016;2023-06-10T06:31:30;26.23;;;13.07;;
44774;SDS011;31340;51.402;0.016;2023-06-10T06:33:58;33.25;;;13.63;;
44774;SDS011;31340;51.402;0.016;2023-06-10T06:36:26;30.05;;;12.93;;
44774;SDS011;31340;51.402;0.016;2023-06-10T06:38:53;33.20;;;12.88;;
44774;SDS011;31340;51.402;0.016;2023-06-10T06:41:22;29.08;;;13.20;;
44774;SDS011;31340;51.402;0.016;2023-06-10T06:43:50;32.78;;;14.23;;
44774;SDS011;31340;51.402;0.016;2023-06-10T06:46:24;29.42;;;13.52;;
44774;SDS011;31340;51.402;0.016;2023-06-10T06:48:52;35.15;;;15.05;;
44774;SDS011;31340;51.402;0.016;2023-06-10T06:51:19;30.55;;;14.32;;
44774;SDS011;31340;51.402;0.016;2023-06-10T06:53:47;32.30;;;14.32;;
44774;SDS011;31340;51.402;0.016;2023-06-10T06:56:17;28.30;;;12.47;;
44774;SDS011;31340;51.402;0.016;2023-06-10T06:58:44;33.20;;;14.10;;
44774;SDS011;31340;51.402;0.016;2023-06-10T07:01:12;28.73;;;13.43;;
44774;SDS011;31340;51.402;0.016;2023-06-10T07:03:39;30.15;;;14.02;;
44774;SDS011;31340;51.402;0.016;2023-06-10T07:06:07;46.00;;;16.90;;
44774;SDS011;31340;51.402;0.016;2023-06-10T07:08:36;35.05;;;15.98;;
44774;SDS011;31340;51.402;0.016;2023-06-10T07:11:03;38.53;;;16.52;;
44774;SDS011;31340;51.402;0.016;2023-06-10T07:13:31;34.78;;;15.77;;
44774;SDS011;31340;51.402;0.016;2023-06-10T07:15:59;34.15;;;16.33;;
44774;SDS011;31340;51.402;0.016;2023-06-10T07:18:27;33.55;;;16.48;;
44774;SDS011;31340;51.402;0.016;2023-06-10T07:20:54;35.28;;;15.27;;
44774;SDS011;31340;51.402;0.016;2023-06-10T07:23:22;30.50;;;15.63;;
44774;SDS011;31340;51.402;0.016;2023-06-10T07:25:49;29.13;;;15.75;;
44774;SDS011;31340;51.402;0.016;2023-06-10T07:28:17;32.80;;;16.35;;
44774;SDS011;31340;51.402;0.016;2023-06-10T07:30:44;34.83;;;15.18;;
44774;SDS011;31340;51.402;0.016;2023-06-10T07:33:12;36.97;;;17.13;;
44774;SDS011;31340;51.402;0.016;2023-06-10T07:35:39;29.77;;;14.80;;
44774;SDS011;31340;51.402;0.016;2023-06-10T07:38:09;34.40;;;15.00;;
44774;SDS011;31340;51.402;0.016;2023-06-10T07:40:37;40.13;;;15.88;;
44774;SDS011;31340;51.402;0.016;2023-06-10T07:43:05;36.05;;;15.40;;
44774;SDS011;31340;51.402;0.016;2023-06-10T07:45:32;34.35;;;16.15;;
44774;SDS011;31340;51.402;0.016;2023-06-10T07:48:00;36.72;;;16.15;;
44774;SDS011;31340;51.402;0.016;2023-06-10T07:50:27;35.00;;;16.20;;
44774;SDS011;31340;51.402;0.016;2023-06-10T07:52:55;31.60;;;15.07;;
44774;SDS011;31340;51.402;0.016;2023-06-10T07:55:23;37.05;;;15.85;;
44774;SDS011;31340;51.402;0.016;2023-06-10T07:57:53;33.28;;;16.00;;
44774;SDS011;31340;51.402;0.016;2023-06-10T08:00:21;25.60;;;13.88;;
44774;SDS011;31340;51.402;0.016;2023-06-10T08:02:48;32.30;;;14.93;;
44774;SDS011;31340;51.402;0.016;2023-06-10T08:05:17;29.88;;;15.15;;
44774;SDS011;31340;51.402;0.016;2023-06-10T08:07:45;26.67;;;15.00;;
44774;SDS011;31340;51.402;0.016;2023-06-10T08:10:12;30.92;;;15.45;;
44774;SDS011;31340;51.402;0.016;2023-06-10T08:12:39;26.77;;;15.38;;
44774;SDS011;31340;51.402;0.016;2023-06-10T08:15:07;26.67;;;14.90;;
44774;SDS011;31340;51.402;0.016;2023-06-10T08:17:36;23.75;;;14.82;;
44774;SDS011;31340;51.402;0.016;2023-06-10T08:20:05;36.00;;;15.07;;
44774;SDS011;31340;51.402;0.016;2023-06-10T08:22:33;29.52;;;16.02;;
44774;SDS011;31340;51.402;0.016;2023-06-10T08:25:00;28.88;;;15.70;;
44774;SDS011;31340;51.402;0.016;2023-06-10T08:27:29;27.10;;;16.27;;
44774;SDS011;31340;51.402;0.016;2023-06-10T08:29:57;25.70;;;14.30;;
44774;SDS011;31340;51.402;0.016;2023-06-10T08:32:27;25.90;;;14.93;;
44774;SDS011;31340;51.402;0.016;2023-06-10T08:34:55;35.42;;;15.63;;
44774;SDS011;31340;51.402;0.016;2023-06-10T08:37:23;26.13;;;14.40;;
44774;SDS011;31340;51.402;0.016;2023-06-10T08:39:51;31.83;;;15.82;;
44774;SDS011;31340;51.402;0.016;2023-06-10T08:42:28;34.00;;;16.35;;
44774;SDS011;31340;51.402;0.016;2023-06-10T08:45:04;27.00;;;14.35;;
44774;SDS011;31340;51.402;0.016;2023-06-10T08:47:34;24.85;;;14.38;;
44774;SDS011;31340;51.402;0.016;2023-06-10T08:50:06;29.83;;;14.55;;
44774;SDS011;31340;51.402;0.016;2023-06-10T08:52:40;31.77;;;15.50;;
44774;SDS011;31340;51.402;0.016;2023-06-10T08:55:10;24.50;;;15.57;;
44774;SDS011;31340;51.402;0.016;2023-06-10T08:57:42;25.33;;;14.07;;
44774;SDS011;31340;51.402;0.016;2023-06-10T09:00:12;20.45;;;13.40;;
44774;SDS011;31340;51.402;0.016;2023-06-10T09:02:40;23.10;;;13.63;;
44774;SDS011;31340;51.402;0.016;2023-06-10T09:05:09;24.35;;;13.73;;
44774;SDS011;31340;51.402;0.016;2023-06-10T09:07:37;23.45;;;14.70;;
44774;SDS011;31340;51.402;0.016;2023-06-10T09:10:06;27.23;;;14.27;;
44774;SDS011;31340;51.402;0.016;2023-06-10T09:12:35;21.02;;;12.40;;
44774;SDS011;31340;51.402;0.016;2023-06-10T09:15:05;25.00;;;13.45;;
44774;SDS011;31340;51.402;0.016;2023-06-10T09:17:34;24.08;;;13.57;;
44774;SDS011;31340;51.402;0.016;2023-06-10T09:20:04;22.40;;;12.85;;
44774;SDS011;31340;51.402;0.016;2023-06-10T09:22:36;24.13;;;14.40;;
44774;SDS011;31340;51.402;0.016;2023-06-10T09:25:05;24.55;;;12.68;;
44774;SDS011;31340;51.402;0.016;2023-06-10T09:27:47;21.60;;;13.35;;
44774;SDS011;31340;51.402;0.016;2023-06-10T09:30:24;24.25;;;14.02;;
44774;SDS011;31340;51.402;0.016;2023-06-10T09:32:59;21.75;;;13.27;;
44774;SDS011;31340;51.402;0.016;2023-06-10T09:35:29;21.45;;;13.32;;
44774;SDS011;31340;51.402;0.016;2023-06-10T09:37:58;22.05;;;13.80;;
44774;SDS011;31340;51.402;0.016;2023-06-10T09:40:27;22.30;;;12.82;;
44774;SDS011;31340;51.402;0.016;2023-06-10T09:42:55;25.00;;;14.27;;
44774;SDS011;31340;51.402;0.016;2023-06-10T09:45:31;26.60;;;13.63;;
44774;SDS011;31340;51.402;0.016;2023-06-10T09:48:00;25.55;;;13.15;;
44774;SDS011;31340;51.402;0.016;2023-06-10T09:50:32;19.52;;;12.93;;
44774;SDS011;31340;51.402;0.016;2023-06-10T09:53:01;22.98;;;13.00;;
44774;SDS011;31340;51.402;0.016;2023-06-10T09:55:32;20.30;;;12.52;;
44774;SDS011;31340;51.402;0.016;2023-06-10T09:58:00;19.00;;;11.23;;
44774;SDS011;31340;51.402;0.016;2023-06-10T10:00:28;15.77;;;11.40;;
44774;SDS011;31340;51.402;0.016;2023-06-10T10:02:56;15.88;;;11.73;;
44774;SDS011;31340;51.402;0.016;2023-06-10T10:05:23;14.93;;;11.63;;
44774;SDS011;31340;51.402;0.016;2023-06-10T10:07:52;16.98;;;9.52;;
44774;SDS011;31340;51.402;0.016;2023-06-10T10:10:20;17.55;;;10.23;;
44774;SDS011;31340;51.402;0.016;2023-06-10T10:12:51;13.20;;;10.50;;
44774;SDS011;31340;51.402;0.016;2023-06-10T10:15:23;16.30;;;10.20;;
44774;SDS011;31340;51.402;0.016;2023-06-10T10:20:47;13.45;;;9.73;;
44774;SDS011;31340;51.402;0.016;2023-06-10T10:23:21;11.80;;;8.95;;
44774;SDS011;31340;51.402;0.016;2023-06-10T10:25:53;13.27;;;8.70;;
44774;SDS011;31340;51.402;0.016;2023-06-10T10:28:23;14.95;;;9.40;;
44774;SDS011;31340;51.402;0.016;2023-06-10T10:30:57;20.15;;;10.07;;
44774;SDS011;31340;51.402;0.016;2023-06-10T10:33:33;17.17;;;9.68;;
44774;SDS011;31340;51.402;0.016;2023-06-10T10:36:23;18.77;;;9.82;;
44774;SDS011;31340;51.402;0.016;2023-06-10T10:38:51;13.98;;;8.50;;
44774;SDS011;31340;51.402;0.016;2023-06-10T10:41:20;16.95;;;9.55;;
44774;SDS011;31340;51.402;0.016;2023-06-10T10:43:49;13.60;;;9.00;;
44774;SDS011;31340;51.402;0.016;2023-06-10T10:46:18;15.68;;;8.85;;
44774;SDS011;31340;51.402;0.016;2023-06-10T10:48:47;13.93;;;8.95;;
44774;SDS011;31340;51.402;0.016;2023-06-10T10:51:20;15.43;;;8.85;;
44774;SDS011;31340;51.402;0.016;2023-06-10T10:54:11;21.83;;;10.70;;
44774;SDS011;31340;51.402;0.016;2023-06-10T10:59:43;15.52;;;9.50;;
44774;SDS011;31340;51.402;0.016;2023-06-10T11:02:32;19.70;;;9.70;;
44774;SDS011;31340;51.402;0.016;2023-06-10T11:05:01;26.20;;;10.10;;
44774;SDS011;31340;51.402;0.016;2023-06-10T11:07:30;21.67;;;10.27;;
44774;SDS011;31340;51.402;0.016;2023-06-10T11:10:09;16.10;;;9.23;;
44774;SDS011;31340;51.402;0.016;2023-06-10T11:12:40;20.58;;;9.73;;
44774;SDS011;31340;51.402;0.016;2023-06-10T11:15:08;17.80;;;9.40;;
44774;SDS011;31340;51.402;0.016;2023-06-10T11:17:36;15.35;;;9.07;;
44774;SDS011;31340;51.402;0.016;2023-06-10T11:20:04;19.63;;;10.38;;
44774;SDS011;31340;51.402;0.016;2023-06-10T11:22:32;17.60;;;9.60;;
44774;SDS011;31340;51.402;0.016;2023-06-10T11:25:00;16.95;;;9.10;;
44774;SDS011;31340;51.402;0.016;2023-06-10T11:27:27;16.38;;;9.50;;
44774;SDS011;31340;51.402;0.016;2023-06-10T11:32:34;20.25;;;11.35;;
44774;SDS011;31340;51.402;0.016;2023-06-10T11:35:02;16.45;;;10.25;;
44774;SDS011;31340;51.402;0.016;2023-06-10T11:37:31;16.30;;;9.90;;
44774;SDS011;31340;51.402;0.016;2023-06-10T11:39:59;16.27;;;10.02;;
44774;SDS011;31340;51.402;0.016;2023-06-10T11:42:27;18.75;;;10.35;;
44774;SDS011;31340;51.402;0.016;2023-06-10T11:44:55;21.60;;;11.80;;
44774;SDS011;31340;51.402;0.016;2023-06-10T11:47:22;15.60;;;9.55;;
44774;SDS011;31340;51.402;0.016;2023-06-10T11:49:56;20.13;;;9.95;;
44774;SDS011;31340;51.402;0.016;2023-06-10T11:52:28;20.45;;;10.45;;
44774;SDS011;31340;51.402;0.016;2023-06-10T11:54:56;17.80;;;10.23;;
44774;SDS011;31340;51.402;0.016;2023-06-10T11:57:24;17.02;;;9.52;;
44774;SDS011;31340;51.402;0.016;2023-06-10T11:59:51;13.63;;;9.27;;
44774;SDS011;31340;51.402;0.016;2023-06-10T12:02:19;12.55;;;8.63;;
44774;SDS011;31340;51.402;0.016;2023-06-10T12:04:47;17.52;;;9.48;;
44774;SDS011;31340;51.402;0.016;2023-06-10T12:07:18;14.57;;;9.00;;
44774;SDS011;31340;51.402;0.016;2023-06-10T12:09:58;18.38;;;9.57;;
44774;SDS011;31340;51.402;0.016;2023-06-10T12:12:38;16.13;;;9.60;;
44774;SDS011;31340;51.402;0.016;2023-06-10T12:15:05;15.93;;;9.15;;
44774;SDS011;31340;51.402;0.016;2023-06-10T12:20:08;15.02;;;9.35;;
44774;SDS011;31340;51.402;0.016;2023-06-10T12:22:51;15.82;;;9.38;;
44774;SDS011;31340;51.402;0.016;2023-06-10T12:25:23;14.90;;;9.70;;
44774;SDS011;31340;51.402;0.016;2023-06-10T12:27:56;13.05;;;8.88;;
44774;SDS011;31340;51.402;0.016;2023-06-10T12:30:25;13.98;;;9.48;;
44774;SDS011;31340;51.402;0.016;2023-06-10T12:32:54;9.48;;;8.38;;
44774;SDS011;31340;51.402;0.016;2023-06-10T12:35:23;15.43;;;8.93;;
44774;SDS011;31340;51.402;0.016;2023-06-10T12:37:59;10.68;;;8.93;;
44774;SDS011;31340;51.402;0.016;2023-06-10T12:40:32;9.65;;;7.88;;
44774;SDS011;31340;51.402;0.016;2023-06-10T12:43:04;10.82;;;7.40;;
44774;SDS011;31340;51.402;0.016;2023-06-10T12:45:33;10.18;;;7.47;;
44774;SDS011;31340;51.402;0.016;2023-06-10T12:50:53;10.10;;;7.53;;
44774;SDS011;31340;51.402;0.016;2023-06-10T12:53:23;11.00;;;7.10;;
44774;SDS011;31340;51.402;0.016;2023-06-10T12:55:51;8.60;;;6.90;;
44774;SDS011;31340;51.402;0.016;2023-06-10T12:58:19;9.60;;;7.22;;
44774;SDS011;31340;51.402;0.016;2023-06-10T13:00:47;14.05;;;7.13;;
44774;SDS011;31340;51.402;0.016;2023-06-10T13:03:15;7.88;;;7.03;;
44774;SDS011;31340;51.402;0.016;2023-06-10T13:05:43;12.43;;;9.20;;
44774;SDS011;31340;51.402;0.016;2023-06-10T13:08:11;12.55;;;8.13;;
44774;SDS011;31340;51.402;0.016;2023-06-10T13:10:38;10.25;;;8.48;;
44774;SDS011;31340;51.402;0.016;2023-06-10T13:13:06;11.90;;;9.10;;
44774;SDS011;31340;51.402;0.016;2023-06-10T13:15:36;16.88;;;9.10;;
44774;SDS011;31340;51.402;0.016;2023-06-10T13:18:09;9.93;;;8.45;;
44774;SDS011;31340;51.402;0.016;2023-06-10T13:20:37;15.05;;;9.57;;
44774;SDS011;31340;51.402;0.016;2023-06-10T13:23:04;14.48;;;9.45;;
44774;SDS011;31340;51.402;0.016;2023-06-10T13:25:32;14.18;;;9.68;;
44774;SDS011;31340;51.402;0.016;2023-06-10T13:27:59;15.18;;;10.00;;
44774;SDS011;31340;51.402;0.016;2023-06-10T13:30:28;15.98;;;10.10;;
44774;SDS011;31340;51.402;0.016;2023-06-10T13:32:55;19.27;;;10.70;;
44774;SDS011;31340;51.402;0.016;2023-06-10T13:35:23;15.32;;;10.18;;
44774;SDS011;31340;51.402;0.016;2023-06-10T13:37:50;20.73;;;11.95;;
44774;SDS011;31340;51.402;0.016;2023-06-10T13:40:18;13.82;;;10.20;;
44774;SDS011;31340;51.402;0.016;2023-06-10T13:42:47;20.10;;;11.40;;
44774;SDS011;31340;51.402;0.016;2023-06-10T13:45:18;15.02;;;9.93;;
44774;SDS011;31340;51.402;0.016;2023-06-10T13:47:45;11.88;;;9.18;;
44774;SDS011;31340;51.402;0.016;2023-06-10T13:50:13;14.77;;;10.32;;
44774;SDS011;31340;51.402;0.016;2023-06-10T13:52:41;17.50;;;10.18;;
44774;SDS011;31340;51.402;0.016;2023-06-10T13:55:08;15.30;;;10.93;;
44774;SDS011;31340;51.402;0.016;2023-06-10T13:57:36;13.95;;;10.50;;
44774;SDS011;31340;51.402;0.016;2023-06-10T14:00:05;13.75;;;9.75;;
44774;SDS011;31340;51.402;0.016;2023-06-10T14:02:33;15.20;;;10.77;;
44774;SDS011;31340;51.402;0.016;2023-06-10T14:05:00;17.52;;;10.32;;
44774;SDS011;31340;51.402;0.016;2023-06-10T14:07:28;14.20;;;9.45;;
44774;SDS011;31340;51.402;0.016;2023-06-10T14:09:56;14.73;;;10.30;;
44774;SDS011;31340;51.402;0.016;2023-06-10T14:12:23;13.85;;;9.30;;
44774;SDS011;31340;51.402;0.016;2023-06-10T14:14:51;14.27;;;9.15;;
44774;SDS011;31340;51.402;0.016;2023-06-10T14:17:19;11.70;;;9.30;;
44774;SDS011;31340;51.402;0.016;2023-06-10T14:19:47;10.13;;;8.93;;
44774;SDS011;31340;51.402;0.016;2023-06-10T14:22:14;13.07;;;9.63;;
44774;SDS011;31340;51.402;0.016;2023-06-10T14:24:42;12.70;;;9.50;;
44774;SDS011;31340;51.402;0.016;2023-06-10T14:27:10;11.75;;;9.45;;
44774;SDS011;31340;51.402;0.016;2023-06-10T14:29:37;14.15;;;9.02;;
44774;SDS011;31340;51.402;0.016;2023-06-10T14:32:05;12.60;;;10.30;;
44774;SDS011;31340;51.402;0.016;2023-06-10T14:34:35;11.20;;;8.93;;
44774;SDS011;31340;51.402;0.016;2023-06-10T14:37:03;11.80;;;9.48;;
44774;SDS011;31340;51.402;0.016;2023-06-10T14:39:34;14.32;;;10.25;;
44774;SDS011;31340;51.402;0.016;2023-06-10T14:42:02;15.48;;;9.98;;
44774;SDS011;31340;51.402;0.016;2023-06-10T14:44:30;11.00;;;8.95;;
44774;SDS011;31340;51.402;0.016;2023-06-10T14:46:58;15.40;;;9.63;;
44774;SDS011;31340;51.402;0.016;2023-06-10T14:49:25;11.07;;;8.88;;
44774;SDS011;31340;51.402;0.016;2023-06-10T14:51:53;11.05;;;9.43;;
44774;SDS011;31340;51.402;0.016;2023-06-10T14:54:20;10.93;;;9.48;;
44774;SDS011;31340;51.402;0.016;2023-06-10T14:56:48;12.73;;;10.07;;
44774;SDS011;31340;51.402;0.016;2023-06-10T14:59:16;12.32;;;9.15;;
44774;SDS011;31340;51.402;0.016;2023-06-10T15:01:43;11.00;;;9.43;;